createdAt,value
2023-06-20T00:00:49.238Z,5.85
2023-06-20T00:03:16.527Z,6.03
2023-06-20T00:05:43.188Z,6.05
2023-06-20T00:08:09.881Z,6.05
2023-06-20T00:10:36.395Z,6.18
2023-06-20T00:13:03.055Z,6.20
2023-06-20T00:15:29.784Z,7.07
2023-06-20T00:17:57.241Z,6.53
2023-06-20T00:20:23.797Z,6.10
2023-06-20T00:22:52.124Z,6.32
2023-06-20T00:25:18.604Z,5.60
2023-06-20T00:27:45.010Z,5.97
2023-06-20T00:30:11.941Z,6.57
2023-06-20T00:32:38.430Z,6.78
2023-06-20T00:35:05.348Z,5.53
2023-06-20T00:37:31.844Z,5.72
2023-06-20T00:39:58.489Z,6.43
2023-06-20T00:42:25.384Z,5.78
2023-06-20T00:44:52.409Z,5.93
2023-06-20T00:47:19.668Z,5.40
2023-06-20T00:49:50.153Z,6.22
2023-06-20T00:52:23.279Z,6.22
2023-06-20T00:54:50.282Z,6.25
2023-06-20T00:57:18.852Z,5.82
2023-06-20T00:59:46.274Z,5.80
2023-06-20T01:02:13.879Z,5.65
2023-06-20T01:04:40.646Z,5.28
2023-06-20T01:07:10.202Z,6.22
2023-06-20T01:09:45.613Z,5.93
2023-06-20T01:12:12.196Z,5.85
2023-06-20T01:14:44.989Z,6.22
2023-06-20T01:17:16.083Z,5.40
2023-06-20T01:19:55.113Z,5.45
2023-06-20T01:22:51.249Z,5.85
2023-06-20T01:25:37.950Z,6.20
2023-06-20T01:28:09.288Z,5.97
2023-06-20T01:30:51.987Z,5.38
2023-06-20T01:33:20.778Z,6.07
2023-06-20T01:35:48.319Z,6.22
2023-06-20T01:38:16.293Z,6.13
2023-06-20T01:40:48.408Z,5.32
2023-06-20T01:43:15.627Z,5.30
2023-06-20T01:45:44.542Z,5.65
2023-06-20T01:48:12.580Z,6.55
2023-06-20T01:50:39.683Z,6.10
2023-06-20T01:53:06.990Z,5.97
2023-06-20T01:55:33.914Z,6.63
2023-06-20T01:58:01.398Z,5.97
2023-06-20T02:00:29.989Z,6.00
2023-06-20T02:02:57.998Z,5.72
2023-06-20T02:05:26.190Z,6.13
2023-06-20T02:07:55.852Z,6.53
2023-06-20T02:10:23.062Z,5.72
2023-06-20T02:12:52.227Z,5.60
2023-06-20T02:15:19.303Z,5.85
2023-06-20T02:17:46.797Z,6.82
2023-06-20T02:20:14.933Z,5.85
2023-06-20T02:22:47.072Z,6.45
2023-06-20T02:25:16.122Z,6.57
2023-06-20T02:27:43.355Z,6.00
2023-06-20T02:30:10.873Z,6.25
2023-06-20T02:32:37.980Z,5.57
2023-06-20T02:35:06.345Z,6.00
2023-06-20T02:37:34.659Z,6.13
2023-06-20T02:40:05.991Z,5.47
2023-06-20T02:42:32.981Z,5.80
2023-06-20T02:45:01.877Z,6.40
2023-06-20T02:47:49.475Z,6.30
2023-06-20T02:50:20.100Z,6.20
2023-06-20T02:52:53.792Z,5.90
2023-06-20T02:55:29.639Z,5.32
2023-06-20T02:57:57.897Z,5.90
2023-06-20T03:00:25.724Z,5.68
2023-06-20T03:02:59.733Z,6.28
2023-06-20T03:05:28.149Z,6.10
2023-06-20T03:07:55.522Z,6.78
2023-06-20T03:10:22.756Z,6.18
2023-06-20T03:12:51.205Z,6.55
2023-06-20T03:15:17.733Z,5.88
2023-06-20T03:17:44.540Z,6.72
2023-06-20T03:20:11.427Z,6.80
2023-06-20T03:22:39.388Z,6.43
2023-06-20T03:25:06.545Z,7.97
2023-06-20T03:27:33.659Z,6.45
2023-06-20T03:30:04.729Z,6.63
2023-06-20T03:32:35.049Z,6.88
2023-06-20T03:35:19.922Z,6.25
2023-06-20T03:37:46.747Z,6.85
2023-06-20T03:40:13.777Z,6.57
2023-06-20T03:42:43.173Z,7.40
2023-06-20T03:45:10.158Z,7.20
2023-06-20T03:47:38.431Z,7.43
2023-06-20T03:50:05.435Z,7.65
2023-06-20T03:52:32.175Z,6.80
2023-06-20T03:54:58.901Z,8.23
2023-06-20T03:57:26.171Z,7.82
2023-06-20T03:59:53.846Z,8.32
2023-06-20T04:02:20.951Z,7.18
2023-06-20T04:04:51.193Z,7.38
2023-06-20T04:07:19.676Z,7.70
2023-06-20T04:09:52.462Z,7.43
2023-06-20T04:12:20.004Z,7.70
2023-06-20T04:14:46.678Z,7.28
2023-06-20T04:17:13.077Z,7.90
2023-06-20T04:19:39.807Z,7.93
2023-06-20T04:22:06.427Z,7.75
2023-06-20T04:24:34.273Z,7.97
2023-06-20T04:27:01.729Z,7.60
2023-06-20T04:29:30.453Z,7.10
2023-06-20T04:31:57.526Z,7.40
2023-06-20T04:34:25.091Z,7.35
2023-06-20T04:36:52.834Z,7.18
2023-06-20T04:39:19.903Z,7.18
2023-06-20T04:41:46.469Z,7.20
2023-06-20T04:44:14.008Z,7.72
2023-06-20T04:46:40.539Z,7.70
2023-06-20T04:49:07.086Z,7.72
2023-06-20T04:51:33.659Z,8.15
2023-06-20T04:54:02.485Z,8.02
2023-06-20T04:56:29.010Z,7.65
2023-06-20T04:58:55.490Z,7.93
2023-06-20T05:01:22.067Z,8.07
2023-06-20T05:03:49.795Z,8.77
2023-06-20T05:06:18.563Z,8.57
2023-06-20T05:08:47.411Z,8.43
2023-06-20T05:11:13.987Z,8.15
2023-06-20T05:13:40.657Z,7.63
2023-06-20T05:16:07.245Z,8.43
2023-06-20T05:18:34.027Z,7.97
2023-06-20T05:21:03.485Z,8.77
2023-06-20T05:23:30.067Z,8.52
2023-06-20T05:25:56.651Z,8.85
2023-06-20T05:28:23.263Z,8.98
2023-06-20T05:30:49.758Z,8.55
2023-06-20T05:33:16.533Z,9.13
2023-06-20T05:35:45.635Z,9.52
2023-06-20T05:38:13.690Z,8.43
2023-06-20T05:40:40.561Z,7.63
2023-06-20T05:43:07.058Z,9.25
2023-06-20T05:45:33.585Z,8.77
2023-06-20T05:48:03.263Z,8.40
2023-06-20T05:50:31.819Z,10.00
2023-06-20T05:52:58.615Z,9.60
2023-06-20T05:55:25.107Z,8.90
2023-06-20T05:57:51.952Z,9.95
2023-06-20T06:00:18.948Z,8.48
2023-06-20T06:02:46.517Z,9.00
2023-06-20T06:05:13.345Z,9.25
2023-06-20T06:07:40.265Z,9.75
2023-06-20T06:10:08.570Z,8.70
2023-06-20T06:12:38.667Z,10.27
2023-06-20T06:15:06.134Z,9.60
2023-06-20T06:17:33.367Z,10.23
2023-06-20T06:19:59.879Z,8.63
2023-06-20T06:22:26.466Z,9.95
2023-06-20T06:24:53.108Z,9.93
2023-06-20T06:27:19.559Z,9.35
2023-06-20T06:29:46.339Z,8.57
2023-06-20T06:32:13.670Z,9.50
2023-06-20T06:34:42.380Z,9.50
2023-06-20T06:37:10.654Z,9.00
2023-06-20T06:39:37.819Z,9.98
2023-06-20T06:42:04.612Z,10.07
2023-06-20T06:44:35.301Z,8.73
2023-06-20T06:47:02.604Z,9.30
2023-06-20T06:49:29.183Z,9.05
2023-06-20T06:51:57.279Z,9.52
2023-06-20T06:54:23.805Z,9.73
2023-06-20T06:56:50.626Z,9.93
2023-06-20T06:59:17.237Z,9.20
2023-06-20T07:01:43.755Z,10.02
2023-06-20T07:04:10.270Z,9.68
2023-06-20T07:06:36.890Z,9.25
2023-06-20T07:09:03.635Z,9.43
2023-06-20T07:11:30.187Z,10.73
2023-06-20T07:13:56.888Z,9.40
2023-06-20T07:16:23.628Z,10.07
2023-06-20T07:18:50.276Z,9.80
2023-06-20T07:21:18.084Z,11.15
2023-06-20T07:23:44.736Z,9.05
2023-06-20T07:26:11.437Z,8.43
2023-06-20T07:28:37.958Z,10.43
2023-06-20T07:31:04.465Z,10.05
2023-06-20T07:33:31.229Z,10.05
2023-06-20T07:35:59.670Z,10.60
2023-06-20T07:38:26.153Z,9.55
2023-06-20T07:40:53.004Z,10.70
2023-06-20T07:43:22.651Z,11.15
2023-06-20T07:45:49.225Z,9.45
2023-06-20T07:48:15.907Z,12.55
2023-06-20T07:50:42.536Z,10.75
2023-06-20T07:53:08.968Z,11.23
2023-06-20T07:55:35.718Z,11.13
2023-06-20T07:58:02.540Z,11.75
2023-06-20T08:00:29.650Z,11.02
2023-06-20T08:02:56.664Z,10.63
2023-06-20T08:05:23.497Z,10.98
2023-06-20T08:07:51.130Z,10.32
2023-06-20T08:10:18.144Z,10.32
2023-06-20T08:12:45.248Z,10.98
2023-06-20T08:15:11.994Z,10.52
2023-06-20T08:17:39.017Z,10.48
2023-06-20T08:20:10.405Z,10.50
2023-06-20T08:22:37.662Z,10.13
2023-06-20T08:25:04.678Z,9.43
2023-06-20T08:27:32.564Z,8.93
2023-06-20T08:30:01.013Z,8.30
2023-06-20T08:32:27.762Z,6.88
2023-06-20T08:34:56.654Z,6.03
2023-06-20T08:37:24.730Z,6.20
2023-06-20T08:39:51.463Z,6.05
2023-06-20T08:42:17.955Z,5.85
2023-06-20T08:44:56.773Z,6.45
2023-06-20T08:47:25.318Z,6.80
2023-06-20T08:49:52.067Z,7.20
2023-06-20T08:52:22.902Z,7.70
2023-06-20T08:54:49.989Z,6.75
2023-06-20T08:57:16.553Z,6.70
2023-06-20T08:59:43.303Z,5.85
2023-06-20T09:02:11.517Z,6.50
2023-06-20T09:04:38.018Z,6.25
2023-06-20T09:07:16.084Z,6.60
2023-06-20T09:09:42.621Z,7.47
2023-06-20T09:12:09.229Z,6.05
2023-06-20T09:14:35.908Z,6.60
2023-06-20T09:17:04.345Z,6.63
2023-06-20T09:19:41.833Z,6.25
2023-06-20T09:22:12.924Z,5.80
2023-06-20T09:24:43.882Z,6.60
2023-06-20T09:27:10.478Z,5.68
2023-06-20T09:29:52.987Z,6.05
2023-06-20T09:32:23.297Z,6.00
2023-06-20T09:34:51.103Z,5.50
2023-06-20T09:37:18.565Z,5.25
2023-06-20T09:39:45.608Z,5.35
2023-06-20T09:42:13.537Z,5.22
2023-06-20T09:44:41.340Z,5.18
2023-06-20T09:47:08.186Z,5.05
2023-06-20T09:49:40.378Z,5.38
2023-06-20T09:52:15.560Z,4.53
2023-06-20T09:54:56.403Z,4.00
2023-06-20T09:57:26.592Z,5.45
2023-06-20T09:59:55.366Z,5.10
2023-06-20T10:02:25.595Z,4.55
2023-06-20T10:04:52.983Z,5.40
2023-06-20T10:07:20.166Z,5.55
2023-06-20T10:09:48.633Z,5.25
2023-06-20T10:12:18.196Z,4.72
2023-06-20T10:14:44.687Z,4.38
2023-06-20T10:17:13.831Z,4.68
2023-06-20T10:19:47.413Z,4.50
2023-06-20T10:22:13.972Z,4.75
2023-06-20T10:24:42.062Z,4.88
2023-06-20T10:27:08.701Z,4.88
2023-06-20T10:29:42.136Z,4.40
2023-06-20T10:32:09.393Z,5.82
2023-06-20T10:34:42.753Z,6.35
2023-06-20T10:37:21.467Z,5.43
2023-06-20T10:39:51.781Z,5.80
2023-06-20T10:42:40.232Z,5.30
2023-06-20T10:45:20.372Z,4.93
2023-06-20T10:47:47.653Z,5.40
2023-06-20T10:50:17.811Z,4.90
2023-06-20T10:52:44.619Z,4.60
2023-06-20T10:55:14.439Z,4.00
2023-06-20T10:57:44.831Z,3.78
2023-06-20T11:00:16.096Z,4.25
2023-06-20T11:02:42.902Z,4.00
2023-06-20T11:05:10.432Z,3.47
2023-06-20T11:07:52.481Z,3.55
2023-06-20T11:10:21.762Z,3.28
2023-06-20T11:12:48.775Z,3.40
2023-06-20T11:15:23.424Z,3.55
2023-06-20T11:17:50.320Z,3.08
2023-06-20T11:20:18.427Z,3.13
2023-06-20T11:22:48.586Z,3.22
2023-06-20T11:25:24.577Z,3.83
2023-06-20T11:27:51.117Z,3.40
2023-06-20T11:30:24.126Z,2.55
2023-06-20T11:33:01.105Z,2.45
2023-06-20T11:35:39.968Z,2.65
2023-06-20T11:38:06.888Z,2.67
2023-06-20T11:40:33.413Z,1.77
2023-06-20T11:42:59.935Z,2.30
2023-06-20T11:45:27.255Z,2.40
2023-06-20T11:48:13.522Z,2.85
2023-06-20T11:50:44.794Z,2.67
2023-06-20T11:53:19.112Z,2.85
2023-06-20T11:55:50.112Z,2.63
2023-06-20T11:58:17.117Z,2.47
2023-06-20T12:00:48.274Z,2.47
2023-06-20T12:03:15.433Z,2.75
2023-06-20T12:05:41.903Z,2.38
2023-06-20T12:08:08.595Z,2.25
2023-06-20T12:10:40.002Z,2.58
2023-06-20T12:13:06.537Z,2.28
2023-06-20T12:15:33.119Z,2.58
2023-06-20T12:17:59.744Z,2.42
2023-06-20T12:20:35.504Z,2.90
2023-06-20T12:23:05.003Z,2.55
2023-06-20T12:25:31.455Z,2.63
2023-06-20T12:27:59.430Z,2.58
2023-06-20T12:30:27.548Z,1.88
2023-06-20T12:32:56.819Z,2.40
2023-06-20T12:35:23.574Z,2.50
2023-06-20T12:37:50.052Z,2.25
2023-06-20T12:40:16.980Z,2.35
2023-06-20T12:42:44.369Z,2.65
2023-06-20T12:45:11.870Z,2.10
2023-06-20T12:47:38.889Z,2.30
2023-06-20T12:50:06.306Z,2.50
2023-06-20T12:52:32.768Z,2.83
2023-06-20T12:55:01.690Z,2.30
2023-06-20T12:57:29.311Z,2.78
2023-06-20T12:59:56.046Z,2.13
2023-06-20T13:02:23.962Z,2.30
2023-06-20T13:04:52.950Z,2.47
2023-06-20T13:07:21.178Z,2.30
2023-06-20T13:09:51.334Z,2.05
2023-06-20T13:12:18.548Z,2.03
2023-06-20T13:15:01.318Z,2.10
2023-06-20T13:17:35.655Z,2.40
2023-06-20T13:20:02.360Z,1.90
2023-06-20T13:22:29.366Z,1.90
2023-06-20T13:24:58.005Z,1.80
2023-06-20T13:27:26.700Z,2.42
2023-06-20T13:29:54.517Z,2.00
2023-06-20T13:32:21.357Z,2.03
2023-06-20T13:34:48.078Z,1.77
2023-06-20T13:37:14.959Z,1.80
2023-06-20T13:39:41.570Z,2.00
2023-06-20T13:42:09.858Z,1.88
2023-06-20T13:44:36.581Z,1.88
2023-06-20T13:47:03.210Z,1.90
2023-06-20T13:49:30.016Z,1.95
2023-06-20T13:51:56.889Z,1.63
2023-06-20T13:54:23.776Z,1.80
2023-06-20T13:56:50.310Z,1.70
2023-06-20T13:59:17.050Z,2.00
2023-06-20T14:01:43.615Z,1.88
2023-06-20T14:04:10.148Z,1.70
2023-06-20T14:06:36.971Z,1.65
2023-06-20T14:09:05.580Z,1.60
2023-06-20T14:11:32.083Z,1.48
2023-06-20T14:13:58.847Z,1.65
2023-06-20T14:16:28.488Z,1.40
2023-06-20T14:18:58.230Z,1.40
2023-06-20T14:21:25.901Z,1.40
2023-06-20T14:23:52.701Z,1.40
2023-06-20T14:26:20.699Z,1.65
2023-06-20T14:28:48.951Z,1.40
2023-06-20T14:31:15.589Z,1.40
2023-06-20T14:33:42.124Z,1.48
2023-06-20T14:36:08.712Z,1.55
2023-06-20T14:38:38.865Z,1.83
2023-06-20T14:41:05.343Z,2.13
2023-06-20T14:43:31.906Z,1.42
2023-06-20T14:45:58.827Z,1.75
2023-06-20T14:48:25.767Z,1.98
2023-06-20T14:50:52.416Z,2.10
2023-06-20T14:53:19.679Z,1.73
2023-06-20T14:55:46.203Z,1.55
2023-06-20T14:58:12.815Z,2.03
2023-06-20T15:00:40.604Z,2.28
2023-06-20T15:03:07.674Z,1.70
2023-06-20T15:05:34.237Z,1.88
2023-06-20T15:08:01.676Z,2.05
2023-06-20T15:10:29.098Z,2.22
2023-06-20T15:12:56.184Z,1.80
2023-06-20T15:15:22.692Z,1.90
2023-06-20T15:17:49.346Z,1.85
2023-06-20T15:20:16.046Z,1.70
2023-06-20T15:22:42.615Z,1.90
2023-06-20T15:25:09.147Z,2.40
2023-06-20T15:27:37.026Z,2.28
2023-06-20T15:30:03.912Z,2.45
2023-06-20T15:32:30.879Z,2.15
2023-06-20T15:34:57.491Z,2.53
2023-06-20T15:37:23.997Z,3.05
2023-06-20T15:39:50.383Z,3.33
2023-06-20T15:42:17.046Z,3.15
2023-06-20T15:44:43.636Z,2.70
2023-06-20T15:47:10.172Z,2.75
2023-06-20T15:49:36.723Z,4.25
2023-06-20T15:52:03.417Z,3.33
2023-06-20T15:54:30.731Z,5.35
2023-06-20T15:56:59.885Z,3.40
2023-06-20T15:59:26.363Z,3.58
2023-06-20T16:01:53.188Z,3.33
2023-06-20T16:04:19.845Z,3.63
2023-06-20T16:06:46.639Z,2.95
2023-06-20T16:09:13.634Z,2.90
2023-06-20T16:11:40.444Z,2.67
2023-06-20T16:14:07.053Z,2.78
2023-06-20T16:16:33.899Z,2.75
2023-06-20T16:19:01.196Z,2.70
2023-06-20T16:21:31.893Z,3.03
2023-06-20T16:23:59.577Z,2.97
2023-06-20T16:26:26.064Z,2.80
2023-06-20T16:28:52.569Z,3.25
2023-06-20T16:31:21.750Z,2.47
2023-06-20T16:33:50.767Z,2.70
2023-06-20T16:36:18.043Z,2.75
2023-06-20T16:38:44.879Z,2.70
2023-06-20T16:41:11.651Z,2.28
2023-06-20T16:43:38.157Z,3.10
2023-06-20T16:46:04.682Z,2.47
2023-06-20T16:48:31.262Z,2.90
2023-06-20T16:50:57.748Z,2.95
2023-06-20T16:53:24.189Z,4.75
2023-06-20T16:55:50.626Z,4.88
2023-06-20T16:58:17.418Z,3.00
2023-06-20T17:00:44.025Z,3.30
2023-06-20T17:03:13.497Z,2.83
2023-06-20T17:05:40.052Z,2.50
2023-06-20T17:08:06.624Z,2.35
2023-06-20T17:10:33.311Z,2.90
2023-06-20T17:13:00.482Z,2.72
2023-06-20T17:15:27.335Z,2.60
2023-06-20T17:17:54.123Z,3.13
2023-06-20T17:20:20.601Z,2.70
2023-06-20T17:22:47.106Z,2.97
2023-06-20T17:25:13.681Z,3.08
2023-06-20T17:27:40.196Z,2.55
2023-06-20T17:30:07.115Z,2.67
2023-06-20T17:32:35.133Z,2.90
2023-06-20T17:35:01.932Z,2.38
2023-06-20T17:37:29.101Z,2.75
2023-06-20T17:39:55.779Z,3.17
2023-06-20T17:42:22.244Z,2.72
2023-06-20T17:44:48.836Z,3.85
2023-06-20T17:47:15.320Z,3.10
2023-06-20T17:50:16.876Z,3.40
2023-06-20T17:52:44.755Z,3.22
2023-06-20T17:55:11.509Z,3.13
2023-06-20T17:57:54.712Z,2.63
2023-06-20T18:00:25.187Z,2.58
2023-06-20T18:02:52.618Z,3.78
2023-06-20T18:05:19.135Z,3.33
2023-06-20T18:07:45.580Z,3.33
2023-06-20T18:10:12.024Z,3.80
2023-06-20T18:12:38.896Z,3.30
2023-06-20T18:15:11.976Z,3.45
2023-06-20T18:17:42.630Z,3.70
2023-06-20T18:20:12.897Z,3.47
2023-06-20T18:22:41.971Z,3.22
2023-06-20T18:25:12.175Z,3.03
2023-06-20T18:30:53.396Z,2.67
2023-06-20T18:33:20.119Z,2.92
2023-06-20T18:35:47.166Z,2.67
2023-06-20T18:38:16.749Z,3.03
2023-06-20T18:40:48.463Z,3.28
2023-06-20T18:45:42.787Z,4.00
2023-06-20T18:48:09.376Z,3.78
2023-06-20T18:50:42.539Z,3.63
2023-06-20T18:53:09.776Z,3.58
2023-06-20T18:55:36.210Z,3.50
2023-06-20T18:58:02.729Z,4.47
2023-06-20T19:00:29.538Z,4.20
2023-06-20T19:02:56.202Z,4.55
2023-06-20T19:05:23.266Z,4.38
2023-06-20T19:07:54.914Z,3.85
2023-06-20T19:12:53.340Z,3.90
2023-06-20T19:15:25.709Z,4.38
2023-06-20T19:17:52.396Z,4.60
2023-06-20T19:20:20.465Z,4.40
2023-06-20T19:22:53.981Z,5.82
2023-06-20T19:25:20.761Z,6.55
2023-06-20T19:27:47.595Z,5.90
2023-06-20T19:30:14.162Z,5.10
2023-06-20T19:32:41.260Z,5.50
2023-06-20T19:35:08.446Z,5.47
2023-06-20T19:37:34.956Z,5.60
2023-06-20T19:40:03.225Z,5.30
2023-06-20T19:42:30.880Z,4.93
2023-06-20T19:44:57.428Z,5.03
2023-06-20T19:47:24.151Z,5.13
2023-06-20T19:49:50.808Z,5.85
2023-06-20T19:52:17.433Z,5.45
2023-06-20T19:54:44.880Z,5.50
2023-06-20T19:57:11.568Z,5.72
2023-06-20T19:59:38.165Z,5.25
2023-06-20T20:02:07.914Z,5.90
2023-06-20T20:04:34.418Z,5.70
2023-06-20T20:07:00.987Z,5.60
2023-06-20T20:09:27.644Z,4.90
2023-06-20T20:11:54.268Z,5.40
2023-06-20T20:14:23.010Z,5.82
2023-06-20T20:16:49.703Z,5.40
2023-06-20T20:19:18.713Z,5.13
2023-06-20T20:21:45.492Z,5.95
2023-06-20T20:24:12.030Z,5.53
2023-06-20T20:26:38.796Z,6.30
2023-06-20T20:29:06.170Z,7.10
2023-06-20T20:31:33.929Z,6.30
2023-06-20T20:34:15.109Z,6.47
2023-06-20T20:36:41.718Z,7.30
2023-06-20T20:39:09.457Z,6.88
2023-06-20T20:41:39.546Z,6.72
2023-06-20T20:44:10.909Z,6.80
2023-06-20T20:46:40.167Z,7.40
2023-06-20T20:49:06.837Z,6.50
2023-06-20T20:51:33.891Z,7.68
2023-06-20T20:54:03.946Z,8.57
2023-06-20T20:56:30.580Z,7.93
2023-06-20T20:58:57.040Z,8.77
2023-06-20T21:01:23.607Z,8.00
2023-06-20T21:03:50.252Z,8.80
2023-06-20T21:06:17.368Z,10.43
2023-06-20T21:08:43.942Z,9.98
2023-06-20T21:11:10.509Z,9.90
2023-06-20T21:13:37.052Z,10.25
2023-06-20T21:16:03.712Z,10.43
2023-06-20T21:18:30.258Z,12.23
2023-06-20T21:20:56.853Z,13.20
2023-06-20T21:23:23.437Z,14.48
2023-06-20T21:25:50.246Z,12.82
2023-06-20T21:28:16.968Z,13.25
2023-06-20T21:30:43.512Z,13.82
2023-06-20T21:33:11.662Z,16.65
2023-06-20T21:35:38.301Z,15.30
2023-06-20T21:38:04.899Z,15.65
2023-06-20T21:40:31.407Z,14.20
2023-06-20T21:42:57.877Z,15.45
2023-06-20T21:45:24.501Z,14.80
2023-06-20T21:47:51.047Z,16.25
2023-06-20T21:50:22.417Z,15.25
2023-06-20T21:52:48.886Z,17.92
2023-06-20T21:55:15.776Z,17.70
2023-06-20T21:57:42.271Z,16.52
2023-06-20T22:00:12.483Z,18.15
2023-06-20T22:02:39.056Z,18.38
2023-06-20T22:05:05.668Z,19.35
2023-06-20T22:07:32.125Z,17.75
2023-06-20T22:10:03.017Z,18.88
2023-06-20T22:12:31.199Z,22.27
2023-06-20T22:14:59.495Z,21.60
2023-06-20T22:17:27.125Z,21.05
2023-06-20T22:19:54.047Z,19.67
2023-06-20T22:22:20.894Z,21.27
2023-06-20T22:24:47.508Z,22.23
2023-06-20T22:27:14.101Z,21.63
2023-06-20T22:29:40.727Z,19.92
2023-06-20T22:32:07.429Z,20.73
2023-06-20T22:34:38.685Z,20.73
2023-06-20T22:37:05.421Z,21.50
2023-06-20T22:39:31.894Z,22.02
2023-06-20T22:41:58.493Z,20.17
2023-06-20T22:44:25.058Z,21.27
2023-06-20T22:46:51.467Z,19.52
2023-06-20T22:49:22.545Z,20.23
2023-06-20T22:51:54.740Z,18.85
2023-06-20T22:54:24.843Z,20.35
2023-06-20T22:56:51.898Z,18.10
2023-06-20T22:59:21.741Z,20.30
2023-06-20T23:01:48.611Z,18.50
2023-06-20T23:04:15.212Z,21.08
2023-06-20T23:06:41.844Z,22.83
2023-06-20T23:09:11.775Z,20.55
2023-06-20T23:11:42.236Z,20.23
2023-06-20T23:14:08.705Z,22.55
2023-06-20T23:16:35.298Z,20.27
2023-06-20T23:19:02.114Z,19.40
2023-06-20T23:21:28.673Z,20.23
2023-06-20T23:23:55.264Z,21.17
2023-06-20T23:26:22.153Z,23.60
2023-06-20T23:28:49.146Z,22.50
2023-06-20T23:31:17.672Z,24.15
2023-06-20T23:33:44.149Z,26.48
2023-06-20T23:36:11.198Z,27.95
2023-06-20T23:38:37.867Z,26.30
2023-06-20T23:41:04.558Z,25.83
2023-06-20T23:43:31.207Z,25.90
2023-06-20T23:46:01.993Z,26.17
2023-06-20T23:48:28.496Z,29.20
2023-06-20T23:50:55.180Z,26.38
2023-06-20T23:53:22.012Z,30.70
2023-06-20T23:55:48.618Z,33.88
2023-06-20T23:58:15.124Z,28.27
